createdAt,value
2024-02-15T00:02:23.848Z,88.13
2024-02-15T00:04:52.207Z,87.96
2024-02-15T00:07:23.429Z,88.01
2024-02-15T00:09:54.800Z,88.84
2024-02-15T00:12:23.542Z,88.01
2024-02-15T00:14:51.774Z,88.51
2024-02-15T00:17:21.223Z,88.87
2024-02-15T00:19:49.698Z,88.03
2024-02-15T00:22:19.096Z,88.39
2024-02-15T00:24:50.074Z,88.08
2024-02-15T00:27:23.196Z,88.36
2024-02-15T00:29:52.044Z,88.52
2024-02-15T00:32:21.004Z,88.50
2024-02-15T00:34:51.933Z,88.20
2024-02-15T00:37:20.704Z,88.34
2024-02-15T00:39:49.298Z,88.39
2024-02-15T00:42:18.014Z,88.69
2024-02-15T00:44:47.860Z,87.97
2024-02-15T00:47:16.559Z,88.30
2024-02-15T00:49:45.914Z,88.05
2024-02-15T00:52:14.305Z,87.73
2024-02-15T00:54:43.694Z,88.67
2024-02-15T00:57:12.340Z,88.42
2024-02-15T00:59:41.816Z,88.20
2024-02-15T01:02:11.902Z,88.14
2024-02-15T01:04:40.804Z,87.82
2024-02-15T01:07:09.665Z,87.47
2024-02-15T01:09:39.302Z,87.89
2024-02-15T01:12:07.984Z,87.94
2024-02-15T01:14:37.170Z,87.80
2024-02-15T01:17:05.841Z,87.54
2024-02-15T01:19:36.613Z,87.74
2024-02-15T01:22:04.907Z,87.11
2024-02-15T01:24:35.558Z,87.46
2024-02-15T01:27:08.735Z,87.64
2024-02-15T01:29:38.442Z,87.49
2024-02-15T01:32:10.830Z,87.07
2024-02-15T01:34:40.762Z,87.33
2024-02-15T01:37:11.723Z,87.28
2024-02-15T01:39:41.585Z,86.66
2024-02-15T01:42:10.035Z,86.71
2024-02-15T01:44:40.741Z,87.36
2024-02-15T01:47:09.906Z,87.26
2024-02-15T01:49:42.989Z,86.88
2024-02-15T01:52:11.913Z,86.89
2024-02-15T01:54:41.219Z,86.86
2024-02-15T01:57:11.179Z,86.51
2024-02-15T01:59:41.011Z,86.76
2024-02-15T02:02:12.531Z,86.04
2024-02-15T02:04:46.657Z,87.22
2024-02-15T02:07:16.176Z,86.56
2024-02-15T02:09:46.906Z,86.99
2024-02-15T02:12:15.536Z,86.58
2024-02-15T02:14:45.703Z,86.65
2024-02-15T02:17:16.118Z,86.43
2024-02-15T02:19:45.952Z,86.87
2024-02-15T02:22:14.513Z,86.37
2024-02-15T02:25:07.152Z,86.18
2024-02-15T02:27:37.890Z,86.48
2024-02-15T02:30:10.475Z,86.78
2024-02-15T02:32:40.416Z,86.49
2024-02-15T02:35:12.897Z,86.55
2024-02-15T02:37:41.423Z,86.12
2024-02-15T02:40:14.394Z,86.69
2024-02-15T02:42:51.310Z,86.61
2024-02-15T02:45:23.923Z,86.49
2024-02-15T02:47:54.836Z,86.42
2024-02-15T02:50:24.846Z,85.74
2024-02-15T02:52:53.690Z,86.09
2024-02-15T02:55:24.916Z,86.32
2024-02-15T02:57:58.303Z,86.20
2024-02-15T03:00:29.173Z,86.25
2024-02-15T03:02:59.048Z,86.33
2024-02-15T03:05:27.512Z,86.04
2024-02-15T03:08:01.385Z,85.76
2024-02-15T03:10:31.603Z,85.52
2024-02-15T03:13:00.030Z,86.32
2024-02-15T03:15:28.360Z,85.99
2024-02-15T03:17:57.576Z,85.32
2024-02-15T03:20:27.585Z,85.24
2024-02-15T03:22:56.883Z,85.69
2024-02-15T03:25:30.364Z,85.86
2024-02-15T03:28:04.515Z,85.21
2024-02-15T03:30:35.238Z,85.24
2024-02-15T03:33:04.718Z,85.56
2024-02-15T03:35:33.266Z,85.46
2024-02-15T03:38:03.243Z,85.18
2024-02-15T03:40:34.397Z,85.29
2024-02-15T03:43:08.242Z,85.26
2024-02-15T03:45:38.101Z,85.10
2024-02-15T03:48:08.805Z,84.33
2024-02-15T03:50:39.192Z,85.29
2024-02-15T03:53:09.744Z,84.83
2024-02-15T03:55:39.507Z,85.64
2024-02-15T03:58:14.527Z,85.73
2024-02-15T04:00:45.828Z,85.56
2024-02-15T04:03:18.480Z,85.64
2024-02-15T04:05:50.388Z,85.10
2024-02-15T04:08:20.200Z,85.48
2024-02-15T04:10:52.677Z,85.27
2024-02-15T04:13:24.805Z,85.00
2024-02-15T04:15:54.345Z,85.03
2024-02-15T04:18:25.445Z,84.89
2024-02-15T04:20:53.648Z,85.28
2024-02-15T04:23:25.359Z,85.23
2024-02-15T04:25:53.556Z,85.33
2024-02-15T04:28:23.296Z,85.07
2024-02-15T04:30:51.316Z,85.31
2024-02-15T04:33:22.601Z,85.31
2024-02-15T04:35:52.925Z,85.38
2024-02-15T04:38:21.140Z,86.08
2024-02-15T04:40:50.978Z,85.18
2024-02-15T04:43:20.503Z,84.92
2024-02-15T04:45:50.277Z,85.35
2024-02-15T04:48:20.603Z,85.61
2024-02-15T04:50:50.381Z,85.76
2024-02-15T04:53:22.424Z,86.16
2024-02-15T04:55:51.623Z,86.29
2024-02-15T04:58:20.502Z,86.36
2024-02-15T05:00:54.640Z,86.58
2024-02-15T05:03:23.365Z,86.42
2024-02-15T05:05:51.749Z,86.35
2024-02-15T05:08:20.030Z,86.53
2024-02-15T05:10:49.602Z,86.59
2024-02-15T05:13:17.752Z,87.12
2024-02-15T05:15:46.533Z,86.78
2024-02-15T05:18:19.762Z,87.08
2024-02-15T05:20:48.814Z,86.10
2024-02-15T05:23:19.330Z,87.10
2024-02-15T05:25:48.562Z,86.86
2024-02-15T05:28:21.315Z,86.68
2024-02-15T05:30:49.580Z,86.85
2024-02-15T05:33:22.395Z,87.01
2024-02-15T05:35:52.558Z,86.64
2024-02-15T05:38:22.710Z,86.92
2024-02-15T05:40:54.544Z,86.67
2024-02-15T05:43:25.437Z,86.59
2024-02-15T05:45:59.548Z,86.65
2024-02-15T05:48:31.060Z,86.43
2024-02-15T05:51:02.237Z,86.65
2024-02-15T05:53:32.373Z,86.19
2024-02-15T05:56:05.449Z,86.17
2024-02-15T05:58:33.991Z,86.05
2024-02-15T06:01:06.349Z,86.13
2024-02-15T06:03:39.901Z,85.13
2024-02-15T06:06:14.423Z,85.06
2024-02-15T06:08:45.748Z,84.58
2024-02-15T06:11:16.479Z,84.47
2024-02-15T06:13:47.517Z,84.61
2024-02-15T06:16:16.171Z,84.36
2024-02-15T06:18:46.642Z,85.05
2024-02-15T06:21:14.993Z,84.93
2024-02-15T06:23:43.914Z,84.91
2024-02-15T06:26:12.533Z,84.14
2024-02-15T06:28:58.275Z,85.25
2024-02-15T06:31:46.468Z,85.14
2024-02-15T06:34:33.713Z,85.69
2024-02-15T06:37:19.710Z,85.73
2024-02-15T06:39:48.233Z,85.49
2024-02-15T06:42:21.748Z,85.82
2024-02-15T06:44:50.989Z,85.86
2024-02-15T06:47:20.990Z,84.80
2024-02-15T06:49:54.020Z,85.04
2024-02-15T06:52:23.717Z,84.37
2024-02-15T06:54:52.482Z,84.61
2024-02-15T06:57:21.466Z,84.22
2024-02-15T06:59:52.980Z,84.41
2024-02-15T07:02:21.019Z,83.87
2024-02-15T07:04:53.223Z,83.51
2024-02-15T07:07:23.850Z,84.46
2024-02-15T07:09:53.851Z,84.92
2024-02-15T07:12:22.909Z,85.40
2024-02-15T07:14:52.330Z,83.91
2024-02-15T07:17:21.246Z,83.96
2024-02-15T07:19:50.438Z,85.34
2024-02-15T07:22:19.912Z,85.32
2024-02-15T07:24:49.493Z,84.58
2024-02-15T07:27:17.979Z,83.25
2024-02-15T07:29:46.118Z,83.20
2024-02-15T07:32:16.063Z,82.14
2024-02-15T07:34:44.998Z,82.10
2024-02-15T07:37:14.176Z,82.18
2024-02-15T07:39:44.935Z,81.53
2024-02-15T07:42:15.312Z,80.44
2024-02-15T07:44:44.196Z,80.04
2024-02-15T07:47:12.825Z,80.07
2024-02-15T07:49:41.710Z,77.99
2024-02-15T07:52:11.297Z,78.76
2024-02-15T07:54:39.716Z,77.48
2024-02-15T07:57:11.979Z,78.15
2024-02-15T07:59:42.137Z,71.64
2024-02-15T08:02:10.758Z,74.00
2024-02-15T08:04:42.221Z,74.69
2024-02-15T08:07:14.113Z,74.11
2024-02-15T08:09:45.101Z,71.34
2024-02-15T08:12:16.941Z,71.88
2024-02-15T08:14:46.375Z,73.13
2024-02-15T08:17:14.997Z,74.77
2024-02-15T08:19:47.227Z,73.43
2024-02-15T08:22:17.223Z,72.42
2024-02-15T08:24:45.659Z,72.39
2024-02-15T08:27:14.671Z,74.57
2024-02-15T08:29:43.325Z,72.37
2024-02-15T08:32:12.936Z,71.32
2024-02-15T08:34:42.007Z,71.75
2024-02-15T08:37:59.881Z,72.75
2024-02-15T08:40:38.284Z,74.71
2024-02-15T08:43:34.062Z,72.81
2024-02-15T08:46:31.489Z,70.72
2024-02-15T08:49:26.454Z,69.96
2024-02-15T08:52:01.092Z,70.59
2024-02-15T08:54:47.050Z,67.55
2024-02-15T08:57:37.889Z,66.54
2024-02-15T09:01:00.252Z,68.03
2024-02-15T09:03:42.234Z,63.56
2024-02-15T09:06:30.057Z,62.17
2024-02-15T09:09:30.893Z,61.35
2024-02-15T09:12:20.619Z,61.05
2024-02-15T09:14:59.074Z,62.08
2024-02-15T09:17:41.468Z,65.22
2024-02-15T09:20:22.010Z,63.78
2024-02-15T09:23:11.115Z,64.10
2024-02-15T09:25:48.666Z,65.78
2024-02-15T09:28:26.176Z,68.53
2024-02-15T09:31:06.648Z,68.67
2024-02-15T09:33:50.373Z,64.27
2024-02-15T09:36:55.472Z,62.95
2024-02-15T09:39:55.059Z,62.87
2024-02-15T09:42:57.589Z,59.72
2024-02-15T09:53:08.758Z,62.51
2024-02-15T09:56:09.315Z,59.83
2024-02-15T09:58:46.288Z,62.20
2024-02-15T10:01:54.340Z,62.04
2024-02-15T10:07:54.545Z,61.78
2024-02-15T10:10:59.286Z,56.24
2024-02-15T10:13:35.697Z,60.12
2024-02-15T10:16:48.333Z,60.91
2024-02-15T10:30:27.163Z,59.04
2024-02-15T10:33:16.329Z,54.48
2024-02-15T10:36:37.285Z,55.91
2024-02-15T10:39:18.084Z,57.49
2024-02-15T10:41:49.540Z,54.73
2024-02-15T10:44:20.815Z,57.98
2024-02-15T10:46:52.167Z,56.85
2024-02-15T10:49:22.906Z,59.03
2024-02-15T10:51:56.407Z,62.75
2024-02-15T10:54:40.560Z,58.63
2024-02-15T10:57:14.203Z,60.51
2024-02-15T10:59:58.598Z,58.88
2024-02-15T11:02:33.221Z,58.02
2024-02-15T11:05:11.988Z,58.46
2024-02-15T11:07:41.865Z,56.43
2024-02-15T11:10:12.906Z,56.19
2024-02-15T11:12:49.385Z,56.97
2024-02-15T11:15:50.492Z,56.26
2024-02-15T11:18:47.836Z,58.62
2024-02-15T11:21:18.797Z,55.22
2024-02-15T11:23:47.679Z,56.47
2024-02-15T11:26:51.379Z,59.19
2024-02-15T11:29:53.712Z,54.71
2024-02-15T11:32:41.157Z,55.56
2024-02-15T11:35:17.369Z,52.29
2024-02-15T11:38:01.679Z,56.27
2024-02-15T11:40:31.282Z,57.86
2024-02-15T11:43:01.180Z,59.92
2024-02-15T11:45:35.164Z,56.17
2024-02-15T11:48:04.171Z,53.42
2024-02-15T11:50:37.579Z,54.40
2024-02-15T11:53:11.775Z,52.83
2024-02-15T11:55:43.768Z,52.11
2024-02-15T11:58:23.245Z,51.70
2024-02-15T12:01:11.026Z,52.78
2024-02-15T12:04:03.922Z,55.49
2024-02-15T12:06:54.198Z,54.67
2024-02-15T12:09:40.747Z,52.22
2024-02-15T12:12:27.255Z,47.44
2024-02-15T12:15:19.146Z,47.52
2024-02-15T12:18:06.876Z,49.54
2024-02-15T12:20:36.596Z,47.00
2024-02-15T12:23:08.728Z,47.10
2024-02-15T12:25:44.894Z,43.88
2024-02-15T12:28:16.790Z,43.58
2024-02-15T12:30:46.276Z,44.98
2024-02-15T12:33:21.684Z,42.20
2024-02-15T12:35:51.305Z,43.39
2024-02-15T12:38:19.663Z,44.14
2024-02-15T12:40:49.252Z,41.28
2024-02-15T12:43:19.633Z,46.85
2024-02-15T12:45:48.424Z,48.62
2024-02-15T12:48:20.267Z,50.20
2024-02-15T12:50:48.583Z,47.09
2024-02-15T12:53:23.563Z,47.31
2024-02-15T12:55:59.406Z,47.89
2024-02-15T12:58:28.257Z,47.06
2024-02-15T13:01:00.179Z,48.96
2024-02-15T13:03:29.550Z,49.67
2024-02-15T13:05:59.388Z,48.02
2024-02-15T13:08:27.991Z,45.64
2024-02-15T13:10:57.483Z,46.89
2024-02-15T13:13:25.687Z,47.70
2024-02-15T13:15:53.998Z,46.96
2024-02-15T13:18:23.709Z,51.96
2024-02-15T13:20:54.510Z,49.36
2024-02-15T13:23:27.209Z,47.97
2024-02-15T13:25:57.971Z,48.09
2024-02-15T13:28:26.788Z,50.23
2024-02-15T13:30:57.818Z,48.44
2024-02-15T13:33:27.808Z,48.55
2024-02-15T13:36:09.030Z,49.69
2024-02-15T13:38:43.671Z,52.05
2024-02-15T13:41:28.876Z,53.19
2024-02-15T13:44:05.583Z,52.80
2024-02-15T13:46:42.632Z,53.23
2024-02-15T13:49:26.637Z,51.43
2024-02-15T13:52:11.625Z,52.23
2024-02-15T13:54:54.752Z,53.19
2024-02-15T13:57:35.058Z,53.73
2024-02-15T14:00:23.976Z,53.61
2024-02-15T14:03:00.483Z,53.88
2024-02-15T14:05:46.536Z,54.99
2024-02-15T14:08:25.906Z,55.41
2024-02-15T14:11:08.690Z,53.92
2024-02-15T14:13:57.422Z,54.64
2024-02-15T14:16:42.339Z,55.37
2024-02-15T14:19:19.974Z,53.54
2024-02-15T14:22:05.333Z,55.22
2024-02-15T14:25:05.786Z,54.70
2024-02-15T14:27:51.052Z,54.15
2024-02-15T14:30:40.837Z,55.64
2024-02-15T14:33:33.211Z,55.24
2024-02-15T14:36:06.815Z,54.50
2024-02-15T14:38:36.608Z,54.56
2024-02-15T14:41:33.745Z,54.04
2024-02-15T14:44:15.174Z,55.44
2024-02-15T14:46:46.189Z,55.24
2024-02-15T14:49:19.581Z,55.52
2024-02-15T14:51:53.936Z,56.39
2024-02-15T14:54:24.597Z,55.03
2024-02-15T14:57:02.716Z,56.21
2024-02-15T14:59:30.863Z,55.37
2024-02-15T15:02:11.900Z,55.75
2024-02-15T15:05:09.469Z,56.15
2024-02-15T15:08:05.709Z,55.89
2024-02-15T15:10:53.003Z,55.33
2024-02-15T15:13:24.089Z,55.82
2024-02-15T15:15:52.299Z,55.65
2024-02-15T15:18:28.988Z,55.89
2024-02-15T15:21:02.553Z,57.71
2024-02-15T15:23:32.956Z,57.19
2024-02-15T15:26:00.952Z,57.80
2024-02-15T15:28:34.870Z,58.99
2024-02-15T15:31:02.875Z,58.31
2024-02-15T15:33:35.966Z,59.46
2024-02-15T15:36:08.251Z,59.50
2024-02-15T15:38:36.769Z,59.80
2024-02-15T15:41:05.942Z,59.57
2024-02-15T15:43:43.791Z,60.27
2024-02-15T15:46:20.944Z,60.99
2024-02-15T15:48:51.608Z,60.35
2024-02-15T15:51:22.747Z,60.73
2024-02-15T15:53:55.861Z,60.83
2024-02-15T15:56:24.802Z,61.95
2024-02-15T15:59:00.620Z,61.60
2024-02-15T16:01:34.234Z,61.88
2024-02-15T16:04:07.554Z,63.42
2024-02-15T16:06:42.196Z,62.94
2024-02-15T16:09:11.556Z,63.29
2024-02-15T16:11:41.441Z,63.21
2024-02-15T16:14:15.046Z,63.44
2024-02-15T16:16:44.635Z,64.74
2024-02-15T16:19:13.138Z,63.85
2024-02-15T16:21:41.987Z,64.14
2024-02-15T16:24:14.350Z,64.71
2024-02-15T16:26:42.350Z,65.49
2024-02-15T16:29:12.045Z,66.40
2024-02-15T16:31:41.155Z,66.88
2024-02-15T16:34:11.398Z,67.77
2024-02-15T16:36:40.179Z,67.78
2024-02-15T16:39:08.818Z,68.04
2024-02-15T16:41:37.490Z,68.15
2024-02-15T16:44:07.853Z,68.53
2024-02-15T16:46:37.238Z,69.01
2024-02-15T16:49:06.789Z,68.31
2024-02-15T16:51:35.708Z,69.48
2024-02-15T16:54:06.042Z,69.47
2024-02-15T16:56:35.962Z,69.49
2024-02-15T16:59:06.081Z,69.97
2024-02-15T17:01:43.789Z,69.69
2024-02-15T17:04:28.985Z,70.35
2024-02-15T17:10:38.149Z,71.35
2024-02-15T17:13:32.871Z,71.29
2024-02-15T17:16:20.497Z,71.62
2024-02-15T17:19:09.952Z,72.05
2024-02-15T17:22:00.580Z,71.89
2024-02-15T17:25:03.135Z,72.15
2024-02-15T17:27:54.674Z,72.60
2024-02-15T17:30:53.930Z,72.55
2024-02-15T17:34:08.108Z,72.72
2024-02-15T17:36:51.230Z,70.49
2024-02-15T17:42:22.748Z,72.50
2024-02-15T17:44:50.967Z,71.66
2024-02-15T17:47:21.133Z,71.46
2024-02-15T17:49:58.425Z,72.70
2024-02-15T17:52:26.607Z,73.29
2024-02-15T17:54:58.773Z,73.28
2024-02-15T17:57:27.378Z,74.16
2024-02-15T17:59:56.259Z,71.87
2024-02-15T18:02:48.700Z,72.93
2024-02-15T18:05:21.170Z,73.11
2024-02-15T18:07:57.473Z,73.30
2024-02-15T18:10:52.236Z,72.77
2024-02-15T18:17:23.431Z,73.06
2024-02-15T18:20:17.203Z,71.94
2024-02-15T18:23:21.377Z,70.47
2024-02-15T18:25:55.123Z,68.49
2024-02-15T18:28:31.053Z,67.10
2024-02-15T18:31:12.918Z,67.15
2024-02-15T18:33:58.645Z,66.36
2024-02-15T18:36:28.652Z,65.56
2024-02-15T18:39:06.711Z,65.55
2024-02-15T18:42:04.876Z,65.59
2024-02-15T18:45:34.321Z,65.09
2024-02-15T18:48:42.388Z,65.55
2024-02-15T18:51:41.978Z,66.80
2024-02-15T18:54:34.782Z,67.05
2024-02-15T18:57:19.698Z,66.47
2024-02-15T19:00:15.668Z,65.49
2024-02-15T19:03:08.277Z,66.92
2024-02-15T19:05:47.433Z,65.88
2024-02-15T19:08:16.363Z,66.24
2024-02-15T19:10:50.080Z,67.92
2024-02-15T19:13:19.723Z,68.73
2024-02-15T19:15:50.944Z,69.38
2024-02-15T19:18:21.685Z,67.84
2024-02-15T19:21:00.980Z,68.62
2024-02-15T19:23:30.252Z,67.40
2024-02-15T19:26:00.879Z,66.57
2024-02-15T19:28:29.556Z,65.90
2024-02-15T19:31:08.319Z,66.26
2024-02-15T19:33:52.260Z,66.92
2024-02-15T19:36:29.578Z,67.72
2024-02-15T19:38:58.013Z,69.60
2024-02-15T19:41:27.734Z,70.23
2024-02-15T19:44:00.562Z,70.92
2024-02-15T19:46:32.477Z,72.30
2024-02-15T19:49:02.213Z,70.92
2024-02-15T19:51:40.760Z,69.92
2024-02-15T19:54:09.821Z,71.89
2024-02-15T19:56:39.998Z,70.54
2024-02-15T19:59:17.160Z,69.45
2024-02-15T20:01:46.114Z,69.97
2024-02-15T20:04:14.496Z,68.66
2024-02-15T20:09:40.804Z,68.43
2024-02-15T20:12:17.948Z,69.98
2024-02-15T20:14:51.613Z,67.99
2024-02-15T20:17:20.409Z,68.18
2024-02-15T20:19:50.726Z,68.11
2024-02-15T20:22:20.641Z,67.65
2024-02-15T20:24:50.445Z,67.92
2024-02-15T20:27:23.163Z,68.34
2024-02-15T20:29:52.649Z,68.09
2024-02-15T20:32:22.878Z,68.03
2024-02-15T20:34:51.158Z,67.96
2024-02-15T20:37:20.103Z,67.42
2024-02-15T20:39:49.532Z,67.57
2024-02-15T20:42:22.853Z,67.67
2024-02-15T20:44:52.844Z,66.81
2024-02-15T20:47:22.354Z,66.79
2024-02-15T20:49:51.541Z,67.38
2024-02-15T20:52:20.970Z,67.44
2024-02-15T20:54:50.424Z,66.50
2024-02-15T20:57:18.738Z,67.18
2024-02-15T21:00:10.794Z,66.53
2024-02-15T21:02:48.355Z,66.54
2024-02-15T21:05:24.499Z,66.59
2024-02-15T21:08:01.657Z,66.75
2024-02-15T21:10:33.167Z,65.98
2024-02-15T21:13:15.817Z,65.28
2024-02-15T21:16:20.262Z,65.58
2024-02-15T21:21:50.133Z,65.87
2024-02-15T21:24:24.069Z,65.79
2024-02-15T21:27:03.727Z,66.03
2024-02-15T21:29:32.303Z,67.12
2024-02-15T21:32:02.335Z,66.47
2024-02-15T21:34:37.710Z,67.43
2024-02-15T21:37:06.600Z,67.61
2024-02-15T21:39:42.096Z,67.47
2024-02-15T21:42:11.448Z,67.61
2024-02-15T21:44:40.436Z,67.92
2024-02-15T21:47:10.740Z,67.48
2024-02-15T21:49:39.592Z,68.12
2024-02-15T21:52:09.450Z,69.22
2024-02-15T21:54:40.974Z,67.61
2024-02-15T21:57:09.357Z,68.31
2024-02-15T21:59:41.172Z,68.18
2024-02-15T22:02:14.246Z,67.68
2024-02-15T22:04:43.745Z,68.42
2024-02-15T22:07:14.705Z,68.56
2024-02-15T22:09:44.161Z,68.80
2024-02-15T22:12:21.385Z,68.24
2024-02-15T22:14:52.143Z,68.40
2024-02-15T22:17:25.090Z,70.41
2024-02-15T22:19:58.180Z,71.92
2024-02-15T22:22:26.942Z,72.37
2024-02-15T22:24:55.629Z,72.20
2024-02-15T22:27:25.916Z,72.09
2024-02-15T22:29:59.791Z,73.03
2024-02-15T22:32:32.037Z,73.19
2024-02-15T22:35:03.160Z,73.40
2024-02-15T22:37:34.836Z,72.96
2024-02-15T22:40:05.808Z,73.14
2024-02-15T22:42:34.315Z,73.06
2024-02-15T22:45:05.340Z,72.78
2024-02-15T22:47:36.364Z,73.79
2024-02-15T22:50:05.306Z,73.37
2024-02-15T22:52:43.741Z,73.80
2024-02-15T22:55:13.500Z,74.78
2024-02-15T22:57:41.759Z,74.16
2024-02-15T23:00:14.861Z,74.13
2024-02-15T23:02:45.129Z,75.46
2024-02-15T23:05:13.866Z,74.62
2024-02-15T23:07:43.245Z,75.11
2024-02-15T23:10:12.114Z,74.97
2024-02-15T23:12:42.990Z,75.15
2024-02-15T23:15:16.173Z,75.22
2024-02-15T23:17:47.114Z,74.98
2024-02-15T23:20:15.962Z,74.73
2024-02-15T23:22:45.381Z,75.25
2024-02-15T23:25:14.325Z,75.49
2024-02-15T23:27:43.165Z,75.14
2024-02-15T23:30:14.151Z,75.60
2024-02-15T23:32:53.873Z,75.84
2024-02-15T23:35:31.804Z,75.93
2024-02-15T23:38:19.059Z,76.18
2024-02-15T23:40:49.750Z,76.21
2024-02-15T23:43:22.435Z,75.47
2024-02-15T23:45:52.540Z,74.79
2024-02-15T23:48:22.155Z,75.22
2024-02-15T23:50:52.054Z,75.67
2024-02-15T23:53:21.388Z,75.51
2024-02-15T23:55:50.823Z,75.53
2024-02-15T23:58:19.408Z,76.25
